createdAt,value
2023-03-26T00:01:58.905Z,99261.45
2023-03-26T00:04:12.126Z,99270.02
2023-03-26T00:06:27.452Z,99266.50
2023-03-26T00:08:42.349Z,99266.85
2023-03-26T00:10:55.181Z,99271.48
2023-03-26T00:13:08.445Z,99264.33
2023-03-26T00:15:21.005Z,99264.10
2023-03-26T00:17:34.585Z,99262.52
2023-03-26T00:19:47.252Z,99261.45
2023-03-26T00:22:00.550Z,99260.42
2023-03-26T00:24:15.059Z,99258.64
2023-03-26T00:26:29.534Z,99252.23
2023-03-26T00:28:43.074Z,99251.56
2023-03-26T00:31:01.912Z,99253.85
2023-03-26T00:33:17.440Z,99251.46
2023-03-26T00:35:30.338Z,99245.41
2023-03-26T00:37:43.095Z,99245.48
2023-03-26T00:40:00.744Z,99244.82
2023-03-26T00:42:14.733Z,99239.98
2023-03-26T00:44:27.269Z,99240.11
2023-03-26T00:46:40.018Z,99237.64
2023-03-26T00:48:53.020Z,99237.92
2023-03-26T00:51:06.494Z,99237.96
2023-03-26T00:53:20.057Z,99237.64
2023-03-26T00:55:32.682Z,99237.14
2023-03-26T00:57:45.998Z,99235.59
2023-03-26T00:59:58.612Z,99235.80
2023-03-26T01:02:17.005Z,99237.42
2023-03-26T01:04:34.563Z,99238.80
2023-03-26T01:06:47.459Z,99237.17
2023-03-26T01:09:12.582Z,99238.02
2023-03-26T01:11:29.601Z,99242.24
2023-03-26T01:13:50.717Z,99236.64
2023-03-26T01:16:09.889Z,99238.16
2023-03-26T01:18:33.836Z,99238.14
2023-03-26T01:20:49.745Z,99237.20
2023-03-26T01:23:06.282Z,99237.98
2023-03-26T01:25:21.224Z,99240.80
2023-03-26T01:27:52.017Z,99241.20
2023-03-26T01:30:05.028Z,99239.80
2023-03-26T01:32:58.593Z,99240.66
2023-03-26T01:35:21.918Z,99239.73
2023-03-26T01:37:46.748Z,99239.08
2023-03-26T01:40:26.351Z,99240.84
2023-03-26T01:42:44.251Z,99240.18
2023-03-26T01:45:08.334Z,99243.14
2023-03-26T01:47:21.842Z,99241.10
2023-03-26T01:49:34.533Z,99239.76
2023-03-26T01:51:47.738Z,99243.27
2023-03-26T01:54:04.185Z,99242.77
2023-03-26T01:56:46.175Z,99241.89
2023-03-26T01:59:23.043Z,99235.83
2023-03-26T02:02:01.236Z,99236.52
2023-03-26T02:04:24.616Z,99233.17
2023-03-26T02:06:50.214Z,99230.09
2023-03-26T02:09:10.713Z,99234.56
2023-03-26T02:11:23.597Z,99234.20
2023-03-26T02:13:36.745Z,99231.76
2023-03-26T02:16:01.323Z,99230.08
2023-03-26T02:18:13.889Z,99225.05
2023-03-26T02:20:30.051Z,99221.30
2023-03-26T02:22:45.605Z,99222.88
2023-03-26T02:24:58.260Z,99222.83
2023-03-26T02:27:12.250Z,99221.25
2023-03-26T02:29:26.857Z,99221.08
2023-03-26T02:31:39.463Z,99222.10
2023-03-26T02:33:53.359Z,99218.63
2023-03-26T02:36:08.353Z,99221.17
2023-03-26T02:38:21.103Z,99222.11
2023-03-26T02:40:33.626Z,99220.64
2023-03-26T02:42:47.247Z,99225.23
2023-03-26T02:44:59.791Z,99221.86
2023-03-26T02:47:12.319Z,99220.75
2023-03-26T02:49:24.827Z,99220.66
2023-03-26T02:51:37.524Z,99215.31
2023-03-26T02:53:50.144Z,99214.92
2023-03-26T02:56:03.106Z,99217.66
2023-03-26T02:58:17.395Z,99217.67
2023-03-26T03:00:30.065Z,99215.09
2023-03-26T03:02:44.408Z,99216.48
2023-03-26T03:05:01.422Z,99218.42
2023-03-26T03:07:17.884Z,99223.02
2023-03-26T03:09:30.638Z,99219.07
2023-03-26T03:11:43.207Z,99220.53
2023-03-26T03:13:55.797Z,99219.25
2023-03-26T03:16:09.120Z,99221.53
2023-03-26T03:18:22.030Z,99220.95
2023-03-26T03:20:35.150Z,99222.52
2023-03-26T03:22:47.748Z,99224.27
2023-03-26T03:25:00.325Z,99225.87
2023-03-26T03:27:13.019Z,99230.67
2023-03-26T03:29:25.580Z,99230.36
2023-03-26T03:31:38.372Z,99233.35
2023-03-26T03:33:51.684Z,99235.30
2023-03-26T03:36:10.350Z,99235.65
2023-03-26T03:38:33.236Z,99233.14
2023-03-26T03:40:46.077Z,99223.81
2023-03-26T03:42:58.622Z,99236.35
2023-03-26T03:45:11.446Z,99235.67
2023-03-26T03:47:24.083Z,99240.34
2023-03-26T03:49:36.665Z,99235.31
2023-03-26T03:51:49.272Z,99234.85
2023-03-26T03:54:01.920Z,99236.96
2023-03-26T03:56:14.775Z,99238.35
2023-03-26T03:58:28.366Z,99241.35
2023-03-26T04:00:41.629Z,99235.80
2023-03-26T04:02:54.569Z,99229.58
2023-03-26T04:05:07.478Z,99237.17
2023-03-26T04:07:21.047Z,99239.22
2023-03-26T04:09:33.590Z,99237.09
2023-03-26T04:11:46.166Z,99244.15
2023-03-26T04:13:59.354Z,99249.59
2023-03-26T04:16:11.936Z,99247.89
2023-03-26T04:18:26.278Z,99251.16
2023-03-26T04:20:42.045Z,99249.10
2023-03-26T04:22:54.651Z,99246.21
2023-03-26T04:25:07.598Z,99246.59
2023-03-26T04:27:32.061Z,99245.73
2023-03-26T04:29:47.963Z,99250.45
2023-03-26T04:32:06.467Z,99249.19
2023-03-26T04:34:26.192Z,99248.80
2023-03-26T04:36:40.712Z,99245.05
2023-03-26T04:38:53.950Z,99248.84
2023-03-26T04:41:07.574Z,99246.75
2023-03-26T04:43:20.099Z,99247.02
2023-03-26T04:45:32.688Z,99250.93
2023-03-26T04:47:46.546Z,99252.21
2023-03-26T04:49:59.328Z,99255.71
2023-03-26T04:52:12.634Z,99258.19
2023-03-26T04:54:25.282Z,99251.73
2023-03-26T04:56:45.355Z,99252.38
2023-03-26T04:59:00.509Z,99249.02
2023-03-26T05:01:13.900Z,99251.25
2023-03-26T05:03:31.205Z,99252.54
2023-03-26T05:05:43.833Z,99248.34
2023-03-26T05:07:56.427Z,99253.30
2023-03-26T05:10:12.346Z,99251.49
2023-03-26T05:12:24.879Z,99251.30
2023-03-26T05:14:37.430Z,99252.03
2023-03-26T05:16:53.195Z,99253.86
2023-03-26T05:19:05.810Z,99252.46
2023-03-26T05:21:18.363Z,99251.20
2023-03-26T05:23:31.127Z,99255.66
2023-03-26T05:25:43.735Z,99256.36
2023-03-26T05:27:56.352Z,99255.69
2023-03-26T05:30:09.877Z,99254.63
2023-03-26T05:32:22.419Z,99257.23
2023-03-26T05:34:35.019Z,99254.51
2023-03-26T05:36:48.553Z,99250.38
2023-03-26T05:39:01.098Z,99248.90
2023-03-26T05:41:13.720Z,99250.00
2023-03-26T05:43:26.826Z,99252.75
2023-03-26T05:45:39.392Z,99254.70
2023-03-26T05:47:54.182Z,99258.48
2023-03-26T05:50:07.897Z,99263.11
2023-03-26T05:52:20.523Z,99258.88
2023-03-26T05:54:33.063Z,99259.23
2023-03-26T05:56:45.594Z,99256.23
2023-03-26T05:58:58.201Z,99259.44
2023-03-26T06:01:16.797Z,99265.70
2023-03-26T06:03:29.501Z,99268.08
2023-03-26T06:05:42.968Z,99270.42
2023-03-26T06:07:55.507Z,99271.05
2023-03-26T06:10:09.418Z,99272.04
2023-03-26T06:12:22.885Z,99271.02
2023-03-26T06:14:35.842Z,99266.59
2023-03-26T06:16:48.424Z,99269.94
2023-03-26T06:19:01.082Z,99271.16
2023-03-26T06:21:13.631Z,99270.81
2023-03-26T06:23:26.323Z,99265.61
2023-03-26T06:25:38.866Z,99271.47
2023-03-26T06:27:51.493Z,99271.08
2023-03-26T06:30:04.516Z,99271.48
2023-03-26T06:32:20.035Z,99278.52
2023-03-26T06:34:33.197Z,99274.52
2023-03-26T06:36:45.917Z,99273.24
2023-03-26T06:38:58.423Z,99274.73
2023-03-26T06:41:10.973Z,99272.16
2023-03-26T06:43:23.639Z,99269.42
2023-03-26T06:45:36.384Z,99267.95
2023-03-26T06:47:48.979Z,99263.41
2023-03-26T06:50:01.763Z,99268.19
2023-03-26T06:52:14.334Z,99262.89
2023-03-26T06:54:27.531Z,99265.05
2023-03-26T06:56:40.253Z,99268.02
2023-03-26T06:58:52.766Z,99263.33
2023-03-26T07:01:05.589Z,99263.81
2023-03-26T07:03:18.152Z,99263.93
2023-03-26T07:05:30.854Z,99273.62
2023-03-26T07:07:45.846Z,99272.41
2023-03-26T07:09:59.384Z,99271.59
2023-03-26T07:12:12.013Z,99277.98
2023-03-26T07:14:25.457Z,99275.66
2023-03-26T07:16:38.148Z,99283.10
2023-03-26T07:18:51.332Z,99283.20
2023-03-26T07:21:04.248Z,99285.33
2023-03-26T07:23:20.423Z,99286.27
2023-03-26T07:25:33.285Z,99285.05
2023-03-26T07:28:06.080Z,99291.14
2023-03-26T07:30:22.301Z,99284.42
2023-03-26T07:33:03.603Z,99280.08
2023-03-26T07:35:38.966Z,99282.73
2023-03-26T07:38:13.444Z,99280.44
2023-03-26T07:41:03.785Z,99286.30
2023-03-26T07:43:32.074Z,99282.04
2023-03-26T07:45:45.072Z,99276.00
2023-03-26T07:47:57.994Z,99279.62
2023-03-26T07:50:18.303Z,99275.98
2023-03-26T07:52:31.792Z,99273.67
2023-03-26T07:54:44.478Z,99277.13
2023-03-26T07:57:06.499Z,99269.20
2023-03-26T07:59:22.521Z,99266.27
2023-03-26T08:01:50.074Z,99261.89
2023-03-26T08:04:26.159Z,99261.55
2023-03-26T08:06:41.250Z,99264.55
2023-03-26T08:08:57.423Z,99263.48
2023-03-26T08:11:20.544Z,99268.91
2023-03-26T08:14:00.708Z,99264.95
2023-03-26T08:16:39.668Z,99264.16
2023-03-26T08:19:35.219Z,99260.94
2023-03-26T08:21:53.547Z,99255.02
2023-03-26T08:24:12.483Z,99251.02
2023-03-26T08:26:35.720Z,99253.02
2023-03-26T08:29:04.055Z,99252.23
2023-03-26T08:31:19.393Z,99254.84
2023-03-26T08:33:32.493Z,99243.55
2023-03-26T08:35:46.030Z,99243.17
2023-03-26T08:37:58.587Z,99242.55
2023-03-26T08:40:12.230Z,99246.86
2023-03-26T08:43:00.664Z,99242.70
2023-03-26T08:45:27.117Z,99239.02
2023-03-26T08:48:07.987Z,99236.30
2023-03-26T08:50:50.534Z,99239.45
2023-03-26T08:53:06.118Z,99237.15
2023-03-26T08:55:39.367Z,99235.80
2023-03-26T08:58:53.981Z,99243.85
2023-03-26T09:01:35.820Z,99242.35
2023-03-26T09:03:57.581Z,99238.77
2023-03-26T09:06:46.034Z,99238.90
2023-03-26T09:09:19.208Z,99243.73
2023-03-26T09:11:53.738Z,99236.22
2023-03-26T09:14:52.492Z,99260.98
2023-03-26T09:17:41.663Z,99275.63
2023-03-26T09:20:36.332Z,99273.52
2023-03-26T09:23:11.019Z,99264.70
2023-03-26T09:25:56.267Z,99253.73
2023-03-26T09:28:41.870Z,99250.48
2023-03-26T09:31:19.000Z,99246.95
2023-03-26T09:33:53.710Z,99243.61
2023-03-26T09:36:23.953Z,99239.65
2023-03-26T09:38:39.176Z,99238.14
2023-03-26T09:41:04.084Z,99233.66
2023-03-26T09:43:46.124Z,99231.70
2023-03-26T09:46:41.072Z,99235.55
2023-03-26T09:49:13.836Z,99230.54
2023-03-26T09:51:56.355Z,99228.41
2023-03-26T09:54:28.475Z,99234.80
2023-03-26T09:56:49.966Z,99234.77
2023-03-26T09:59:29.525Z,99230.17
2023-03-26T10:02:21.030Z,99226.45
2023-03-26T10:04:59.403Z,99230.15
2023-03-26T10:07:32.965Z,99227.92
2023-03-26T10:09:56.853Z,99225.48
2023-03-26T10:12:18.665Z,99225.82
2023-03-26T10:14:49.717Z,99224.84
2023-03-26T10:17:15.540Z,99223.15
2023-03-26T10:19:57.171Z,99221.83
2023-03-26T10:22:40.462Z,99215.44
2023-03-26T10:25:31.870Z,99205.72
2023-03-26T10:28:14.764Z,99204.03
2023-03-26T10:31:01.622Z,99202.21
2023-03-26T10:33:37.408Z,99197.90
2023-03-26T10:36:09.957Z,99200.48
2023-03-26T10:38:51.940Z,99195.05
2023-03-26T10:41:46.259Z,99196.50
2023-03-26T10:44:31.135Z,99192.48
2023-03-26T10:47:14.221Z,99201.25
2023-03-26T10:49:49.884Z,99225.17
2023-03-26T10:52:06.572Z,99219.65
2023-03-26T10:54:22.042Z,99208.41
2023-03-26T10:56:46.366Z,99207.61
2023-03-26T10:59:04.860Z,99204.48
2023-03-26T11:01:32.466Z,99202.13
2023-03-26T11:03:56.579Z,99194.80
2023-03-26T11:06:49.491Z,99194.20
2023-03-26T11:09:14.497Z,99188.42
2023-03-26T11:11:38.707Z,99192.40
2023-03-26T11:14:31.816Z,99190.65
2023-03-26T11:17:40.288Z,99181.66
2023-03-26T11:20:03.320Z,99174.80
2023-03-26T11:22:27.718Z,99170.83
2023-03-26T11:25:03.306Z,99173.80
2023-03-26T11:27:35.433Z,99173.16
2023-03-26T11:30:07.264Z,99174.23
2023-03-26T11:32:27.160Z,99176.52
2023-03-26T11:34:46.979Z,99175.55
2023-03-26T11:37:03.525Z,99179.23
2023-03-26T11:39:23.828Z,99178.46
2023-03-26T11:41:36.449Z,99182.99
2023-03-26T11:44:21.229Z,99180.17
2023-03-26T11:46:38.829Z,99179.45
2023-03-26T11:48:59.898Z,99177.59
2023-03-26T11:51:26.535Z,99177.13
2023-03-26T11:53:39.648Z,99169.61
2023-03-26T11:56:03.935Z,99169.99
2023-03-26T11:58:31.296Z,99166.38
2023-03-26T12:00:45.137Z,99167.30
2023-03-26T12:03:00.356Z,99165.20
2023-03-26T12:05:22.085Z,99165.82
2023-03-26T12:07:35.637Z,99161.56
2023-03-26T12:09:57.474Z,99164.98
2023-03-26T12:12:38.314Z,99157.69
2023-03-26T12:14:51.633Z,99156.52
2023-03-26T12:17:07.899Z,99153.77
2023-03-26T12:19:22.184Z,99144.20
2023-03-26T12:21:47.734Z,99140.66
2023-03-26T12:24:05.519Z,99137.27
2023-03-26T12:26:22.010Z,99137.19
2023-03-26T12:28:34.883Z,99132.75
2023-03-26T12:31:03.896Z,99136.98
2023-03-26T12:33:26.077Z,99137.98
2023-03-26T12:35:38.945Z,99133.11
2023-03-26T12:37:51.673Z,99131.52
2023-03-26T12:40:30.633Z,99129.31
2023-03-26T12:44:48.827Z,99123.35
2023-03-26T12:45:39.599Z,99119.52
2023-03-26T12:47:57.132Z,99115.55
2023-03-26T12:50:16.358Z,99112.30
2023-03-26T12:52:53.903Z,99108.21
2023-03-26T12:55:22.486Z,99109.61
2023-03-26T12:57:52.573Z,99104.81
2023-03-26T13:00:23.672Z,99100.09
2023-03-26T13:03:12.510Z,99092.59
2023-03-26T13:05:58.421Z,99090.14
2023-03-26T13:08:23.558Z,99084.89
2023-03-26T13:10:59.996Z,99078.38
2023-03-26T13:13:37.406Z,99076.35
2023-03-26T13:15:57.193Z,99078.34
2023-03-26T13:18:34.826Z,99082.44
2023-03-26T13:21:10.231Z,99083.75
2023-03-26T13:23:32.640Z,99076.66
2023-03-26T13:25:58.788Z,99077.73
2023-03-26T13:28:38.928Z,99074.02
2023-03-26T13:31:36.273Z,99069.70
2023-03-26T13:34:19.541Z,99074.33
2023-03-26T13:36:51.702Z,99073.95
2023-03-26T13:39:41.923Z,99072.91
2023-03-26T13:42:27.650Z,99068.41
2023-03-26T13:45:06.450Z,99067.76
2023-03-26T13:47:29.300Z,99067.56
2023-03-26T13:49:48.039Z,99068.61
2023-03-26T13:52:11.730Z,99072.11
2023-03-26T13:54:31.160Z,99067.57
2023-03-26T13:56:50.039Z,99066.30
2023-03-26T13:59:08.734Z,99063.31
2023-03-26T14:01:49.232Z,99063.13
2023-03-26T14:04:32.171Z,99064.15
2023-03-26T14:06:58.078Z,99063.38
2023-03-26T14:09:18.802Z,99059.91
2023-03-26T14:11:43.542Z,99061.34
2023-03-26T14:14:06.622Z,99063.77
2023-03-26T14:16:26.349Z,99061.55
2023-03-26T14:18:52.309Z,99060.95
2023-03-26T14:21:17.034Z,99057.02
2023-03-26T14:23:46.202Z,99051.14
2023-03-26T14:26:04.840Z,99049.50
2023-03-26T14:28:47.986Z,99052.30
2023-03-26T14:33:44.390Z,99039.45
2023-03-26T14:36:15.187Z,99040.93
2023-03-26T14:38:59.230Z,99040.20
2023-03-26T14:41:23.124Z,99039.55
2023-03-26T14:43:41.906Z,99033.97
2023-03-26T14:46:10.588Z,99037.72
2023-03-26T14:48:46.488Z,99035.84
2023-03-26T14:51:42.284Z,99036.23
2023-03-26T14:54:07.908Z,99032.41
2023-03-26T14:57:16.007Z,99032.27
2023-03-26T14:59:47.455Z,99028.83
2023-03-26T15:02:41.829Z,99030.10
2023-03-26T15:04:54.393Z,99029.74
2023-03-26T15:07:27.077Z,99031.34
2023-03-26T15:10:10.735Z,99026.77
2023-03-26T15:13:03.463Z,99030.02
2023-03-26T15:15:19.047Z,99027.10
2023-03-26T15:18:07.666Z,99029.22
2023-03-26T15:20:52.799Z,99026.52
2023-03-26T15:23:27.578Z,99020.80
2023-03-26T15:25:55.590Z,99023.54
2023-03-26T15:28:35.995Z,99020.77
2023-03-26T15:31:36.741Z,99020.94
2023-03-26T15:34:21.272Z,99018.02
2023-03-26T15:37:11.898Z,99015.86
2023-03-26T15:40:09.769Z,99014.68
2023-03-26T15:42:49.782Z,99019.48
2023-03-26T15:45:35.442Z,99025.80
2023-03-26T15:48:01.268Z,99030.90
2023-03-26T15:50:29.684Z,99029.20
2023-03-26T15:53:23.383Z,99031.28
2023-03-26T15:55:52.664Z,99026.98
2023-03-26T15:58:27.160Z,99028.05
2023-03-26T16:01:24.161Z,99023.10
2023-03-26T16:03:50.705Z,99018.30
2023-03-26T16:06:21.838Z,99016.75
2023-03-26T16:09:04.786Z,99010.11
2023-03-26T16:11:55.856Z,99005.63
2023-03-26T16:14:12.466Z,98998.89
2023-03-26T16:16:49.435Z,98998.26
2023-03-26T16:19:20.672Z,99000.49
2023-03-26T16:21:38.391Z,98999.11
2023-03-26T16:23:57.987Z,98999.79
2023-03-26T16:26:27.598Z,99000.93
2023-03-26T16:28:46.738Z,99000.85
2023-03-26T16:31:35.147Z,99000.09
2023-03-26T16:34:21.428Z,98995.94
2023-03-26T16:36:45.532Z,98993.65
2023-03-26T16:39:04.726Z,98993.86
2023-03-26T16:41:21.980Z,98994.01
2023-03-26T16:43:51.270Z,98992.61
2023-03-26T16:46:34.389Z,98990.83
2023-03-26T16:49:17.500Z,98994.55
2023-03-26T16:51:39.037Z,98994.15
2023-03-26T16:54:07.152Z,98995.76
2023-03-26T16:56:42.105Z,98994.79
2023-03-26T16:59:00.347Z,98993.14
2023-03-26T17:01:41.418Z,98992.46
2023-03-26T17:04:18.952Z,98989.73
2023-03-26T17:07:13.719Z,98989.31
2023-03-26T17:09:36.568Z,98990.91
2023-03-26T17:12:02.802Z,98983.63
2023-03-26T17:14:36.885Z,98984.35
2023-03-26T17:17:09.882Z,98978.79
2023-03-26T17:19:30.803Z,98981.08
2023-03-26T17:21:51.656Z,98987.47
2023-03-26T17:24:40.687Z,98986.34
2023-03-26T17:27:24.216Z,98987.64
2023-03-26T17:30:03.972Z,98987.08
2023-03-26T17:32:17.375Z,98987.38
2023-03-26T17:34:38.708Z,98988.69
2023-03-26T17:36:59.249Z,98987.98
2023-03-26T17:39:20.562Z,98985.66
2023-03-26T17:41:55.536Z,98991.38
2023-03-26T17:44:35.850Z,98990.65
2023-03-26T17:46:49.844Z,98996.41
2023-03-26T17:49:13.895Z,98998.10
2023-03-26T17:51:38.276Z,98998.98
2023-03-26T17:53:52.886Z,99000.20
2023-03-26T17:56:14.653Z,98998.83
2023-03-26T17:58:53.076Z,99005.72
2023-03-26T18:01:28.845Z,99010.20
2023-03-26T18:03:49.366Z,99012.56
2023-03-26T18:06:09.556Z,99010.44
2023-03-26T18:08:37.104Z,99010.10
2023-03-26T18:11:07.987Z,99012.77
2023-03-26T18:13:45.560Z,99010.08
2023-03-26T18:16:15.991Z,99011.16
2023-03-26T18:18:34.240Z,99008.61
2023-03-26T18:20:49.169Z,99006.90
2023-03-26T18:23:09.806Z,99006.35
2023-03-26T18:25:33.699Z,99007.94
2023-03-26T18:27:46.593Z,99009.27
2023-03-26T18:30:01.989Z,99005.31
2023-03-26T18:32:23.072Z,99006.63
2023-03-26T18:34:39.468Z,99005.43
2023-03-26T18:37:16.722Z,98998.13
2023-03-26T18:39:29.294Z,98995.39
2023-03-26T18:41:42.708Z,98993.83
2023-03-26T18:43:57.340Z,98996.54
2023-03-26T18:46:13.389Z,98993.30
2023-03-26T18:48:28.647Z,98990.77
2023-03-26T18:50:42.052Z,98987.21
2023-03-26T18:52:58.431Z,98987.91
2023-03-26T18:55:13.805Z,98985.42
2023-03-26T18:57:28.690Z,98984.95
2023-03-26T18:59:45.115Z,98986.48
2023-03-26T19:01:59.506Z,98990.33
2023-03-26T19:04:13.051Z,98983.53
2023-03-26T19:06:26.113Z,98981.71
2023-03-26T19:08:41.182Z,98977.06
2023-03-26T19:10:55.290Z,98976.27
2023-03-26T19:13:13.607Z,98971.02
2023-03-26T19:15:29.857Z,98971.73
2023-03-26T19:17:46.026Z,98974.11
2023-03-26T19:19:58.702Z,98972.73
2023-03-26T19:22:11.830Z,98970.86
2023-03-26T19:24:25.340Z,98968.77
2023-03-26T19:26:37.909Z,98969.92
2023-03-26T19:28:54.236Z,98964.95
2023-03-26T19:31:21.056Z,98966.98
2023-03-26T19:33:37.034Z,98969.29
2023-03-26T19:36:13.001Z,98967.63
2023-03-26T19:38:30.039Z,98966.96
2023-03-26T19:40:43.271Z,98968.77
2023-03-26T19:42:58.724Z,98973.83
2023-03-26T19:45:22.938Z,98970.55
2023-03-26T19:47:50.189Z,98965.11
2023-03-26T19:50:23.465Z,98960.98
2023-03-26T19:52:39.353Z,98960.63
2023-03-26T19:55:00.023Z,98960.05
2023-03-26T19:57:14.534Z,98959.57
2023-03-26T19:59:27.093Z,98958.50
2023-03-26T20:01:39.708Z,98960.52
2023-03-26T20:03:57.664Z,98962.86
2023-03-26T20:06:12.938Z,98963.87
2023-03-26T20:08:29.033Z,98960.19
2023-03-26T20:10:42.560Z,98959.05
2023-03-26T20:12:55.545Z,98958.00
2023-03-26T20:15:20.086Z,98956.45
2023-03-26T20:17:34.756Z,98952.45
2023-03-26T20:19:48.070Z,98948.39
2023-03-26T20:22:00.620Z,98944.90
2023-03-26T20:24:17.789Z,98945.29
2023-03-26T20:26:30.343Z,98941.85
2023-03-26T20:28:48.042Z,98943.20
2023-03-26T20:31:01.421Z,98936.98
2023-03-26T20:33:20.434Z,98931.50
2023-03-26T20:35:37.724Z,98924.98
2023-03-26T20:37:51.256Z,98924.95
2023-03-26T20:40:06.660Z,98922.08
2023-03-26T20:42:19.191Z,98921.46
2023-03-26T20:44:31.762Z,98922.07
2023-03-26T20:46:45.776Z,98922.83
2023-03-26T20:48:59.703Z,98919.20
2023-03-26T20:51:14.871Z,98917.84
2023-03-26T20:53:28.121Z,98916.33
2023-03-26T20:55:43.906Z,98911.83
2023-03-26T20:57:56.474Z,98909.30
2023-03-26T21:00:21.630Z,98905.96
2023-03-26T21:02:34.425Z,98906.73
2023-03-26T21:04:49.530Z,98903.64
2023-03-26T21:07:10.867Z,98900.09
2023-03-26T21:09:34.085Z,98902.10
2023-03-26T21:12:00.366Z,98903.13
2023-03-26T21:14:20.794Z,98902.11
2023-03-26T21:16:33.873Z,98900.66
2023-03-26T21:18:46.911Z,98904.95
2023-03-26T21:21:21.575Z,98909.50
2023-03-26T21:23:43.776Z,98918.84
2023-03-26T21:26:16.035Z,98923.89
2023-03-26T21:28:42.488Z,98929.38
2023-03-26T21:30:55.879Z,98926.58
2023-03-26T21:33:08.711Z,98920.86
2023-03-26T21:35:21.812Z,98916.69
2023-03-26T21:37:34.948Z,98909.34
2023-03-26T21:39:48.096Z,98905.17
2023-03-26T21:42:04.788Z,98902.02
2023-03-26T21:44:19.488Z,98898.21
2023-03-26T21:46:32.448Z,98898.04
2023-03-26T21:48:45.373Z,98898.05
2023-03-26T21:51:02.371Z,98895.52
2023-03-26T21:53:15.694Z,98893.91
2023-03-26T21:55:28.559Z,98888.27
2023-03-26T21:57:58.767Z,98888.46
2023-03-26T22:00:18.623Z,98890.98
2023-03-26T22:02:45.106Z,98894.21
2023-03-26T22:05:04.115Z,98898.97
2023-03-26T22:07:23.516Z,98894.52
2023-03-26T22:09:36.745Z,98888.31
2023-03-26T22:11:49.315Z,98883.48
2023-03-26T22:14:02.923Z,98889.00
2023-03-26T22:16:16.771Z,98898.27
2023-03-26T22:18:30.066Z,98901.45
2023-03-26T22:20:43.311Z,98901.88
2023-03-26T22:22:55.889Z,98900.42
2023-03-26T22:25:10.290Z,98906.09
2023-03-26T22:27:22.919Z,98903.27
2023-03-26T22:29:35.526Z,98904.65
2023-03-26T22:31:48.096Z,98900.20
2023-03-26T22:34:00.708Z,98905.73
2023-03-26T22:36:23.077Z,98908.52
2023-03-26T22:38:36.658Z,98902.32
2023-03-26T22:40:57.250Z,98899.89
2023-03-26T22:43:10.092Z,98901.99
2023-03-26T22:45:26.167Z,98898.65
2023-03-26T22:47:40.022Z,98906.32
2023-03-26T22:49:52.780Z,98905.88
2023-03-26T22:52:07.114Z,98909.46
2023-03-26T22:54:19.772Z,98912.94
2023-03-26T22:56:32.454Z,98908.05
2023-03-26T22:58:45.410Z,98905.89
2023-03-26T23:01:01.923Z,98906.20
2023-03-26T23:03:15.338Z,98909.09
2023-03-26T23:05:28.514Z,98910.21
2023-03-26T23:07:42.450Z,98908.52
2023-03-26T23:09:55.107Z,98908.04
2023-03-26T23:12:07.671Z,98904.85
2023-03-26T23:14:20.270Z,98905.20
2023-03-26T23:16:32.862Z,98903.84
2023-03-26T23:18:45.695Z,98898.33
2023-03-26T23:20:58.517Z,98902.17
2023-03-26T23:23:11.257Z,98896.62
2023-03-26T23:25:23.788Z,98897.00
2023-03-26T23:27:37.133Z,98903.16
2023-03-26T23:29:49.686Z,98900.23
2023-03-26T23:32:02.796Z,98895.70
2023-03-26T23:34:16.841Z,98894.77
2023-03-26T23:36:29.493Z,98892.70
2023-03-26T23:38:44.282Z,98898.40
2023-03-26T23:41:02.743Z,98902.75
2023-03-26T23:43:15.396Z,98907.64
2023-03-26T23:45:27.906Z,98907.67
2023-03-26T23:47:42.429Z,98913.70
2023-03-26T23:49:55.865Z,98921.96
2023-03-26T23:52:09.831Z,98921.44
2023-03-26T23:54:25.482Z,98925.61
2023-03-26T23:56:38.122Z,98924.62
2023-03-26T23:58:50.847Z,98921.48
